createdAt,value
2023-12-27T00:02:56.984Z,42
2023-12-27T00:08:04.269Z,40
2023-12-27T00:13:11.649Z,44.5
2023-12-27T00:18:19.429Z,43
2023-12-27T00:23:26.398Z,42.5
2023-12-27T00:28:33.723Z,41.5
2023-12-27T00:33:41.125Z,45
2023-12-27T00:38:48.472Z,44.5
2023-12-27T00:43:55.789Z,44.5
2023-12-27T00:49:03.278Z,40
2023-12-27T00:54:10.489Z,42.5
2023-12-27T00:59:17.837Z,45
2023-12-27T01:04:25.476Z,42.5
2023-12-27T01:09:32.654Z,42
2023-12-27T01:14:39.928Z,41.5
2023-12-27T01:19:47.343Z,43.5
2023-12-27T01:24:54.627Z,41
2023-12-27T01:30:02.083Z,41.5
2023-12-27T01:35:09.477Z,40.5
2023-12-27T01:40:16.700Z,42
2023-12-27T01:45:24.070Z,44
2023-12-27T01:50:31.427Z,43.5
2023-12-27T01:55:38.804Z,41
2023-12-27T02:00:46.220Z,43.5
2023-12-27T02:05:53.499Z,42
2023-12-27T02:11:00.844Z,42
2023-12-27T02:16:08.193Z,43
2023-12-27T02:21:15.567Z,43.5
2023-12-27T02:26:22.918Z,45
2023-12-27T02:31:30.341Z,41.5
2023-12-27T02:36:37.674Z,43.5
2023-12-27T02:41:44.997Z,41.5
2023-12-27T02:46:52.321Z,41.5
2023-12-27T02:51:59.727Z,42.5
2023-12-27T02:57:07.104Z,43.5
2023-12-27T03:02:14.431Z,44
2023-12-27T03:07:21.796Z,44
2023-12-27T03:12:29.201Z,43.5
2023-12-27T03:17:36.515Z,43.5
2023-12-27T03:22:43.837Z,41
2023-12-27T03:27:51.153Z,41
2023-12-27T03:32:58.630Z,43
2023-12-27T03:38:05.905Z,42
2023-12-27T03:43:13.291Z,42.5
2023-12-27T03:48:20.703Z,42
2023-12-27T03:53:27.960Z,42.5
2023-12-27T03:58:35.308Z,44.5
2023-12-27T04:03:42.805Z,42.5
2023-12-27T04:08:50.015Z,44
2023-12-27T04:13:57.373Z,44.5
2023-12-27T04:19:04.859Z,44
2023-12-27T04:24:12.150Z,44
2023-12-27T04:29:19.492Z,43
2023-12-27T04:34:26.918Z,43.5
2023-12-27T04:39:34.178Z,40
2023-12-27T04:44:41.539Z,42.5
2023-12-27T04:49:49.052Z,45
2023-12-27T04:54:56.226Z,42.5
2023-12-27T05:00:03.668Z,44.5
2023-12-27T05:05:10.934Z,43.5
2023-12-27T05:10:18.306Z,42.5
2023-12-27T05:15:25.690Z,45.5
2023-12-27T05:20:33.025Z,43
2023-12-27T05:25:40.349Z,44.5
2023-12-27T05:30:47.809Z,45
2023-12-27T05:35:57.322Z,46
2023-12-27T05:41:02.450Z,43.5
2023-12-27T05:46:09.790Z,44.5
2023-12-27T05:51:17.195Z,45
2023-12-27T05:56:24.522Z,43.5
2023-12-27T06:01:31.915Z,43.5
2023-12-27T06:06:39.283Z,42
2023-12-27T06:11:46.613Z,42
2023-12-27T06:16:53.953Z,42.5
2023-12-27T06:22:01.299Z,42.5
2023-12-27T06:27:08.716Z,41
2023-12-27T06:32:15.997Z,42.5
2023-12-27T06:39:35.068Z,44
2023-12-27T06:44:42.450Z,43.5
2023-12-27T06:49:49.798Z,42
2023-12-27T06:54:57.134Z,40
2023-12-27T07:00:04.668Z,38
2023-12-27T07:05:12.015Z,41.5
2023-12-27T07:10:19.206Z,40
2023-12-27T07:15:26.585Z,43.5
2023-12-27T07:20:33.975Z,46
2023-12-27T07:25:41.287Z,43.5
2023-12-27T07:30:48.709Z,43.5
2023-12-27T07:35:56.020Z,45
2023-12-27T07:41:03.349Z,41
2023-12-27T07:46:10.732Z,43
2023-12-27T07:51:18.129Z,42
2023-12-27T07:56:25.438Z,42.5
2023-12-27T08:01:32.902Z,41.5
2023-12-27T08:06:40.172Z,42
2023-12-27T08:11:47.502Z,41.5
2023-12-27T08:16:54.843Z,39.5
2023-12-27T08:22:02.201Z,31.5
2023-12-27T08:27:09.623Z,33.5
2023-12-27T08:32:16.952Z,37
2023-12-27T08:37:24.298Z,39.5
2023-12-27T08:42:31.690Z,33.5
2023-12-27T08:47:39.057Z,36
2023-12-27T08:52:46.407Z,31.5
2023-12-27T08:57:53.781Z,33.5
2023-12-27T09:03:01.138Z,36.5
2023-12-27T09:08:08.445Z,32.5
2023-12-27T09:13:15.801Z,40
2023-12-27T09:18:23.181Z,38.5
2023-12-27T09:23:30.508Z,32
2023-12-27T09:28:37.826Z,34.5
2023-12-27T09:33:45.259Z,31
2023-12-27T09:38:52.580Z,32
2023-12-27T09:43:59.935Z,30
2023-12-27T09:49:07.303Z,31.5
2023-12-27T09:54:14.628Z,33
2023-12-27T09:59:21.996Z,31.5
2023-12-27T10:04:29.347Z,28.5
2023-12-27T10:09:36.739Z,28
2023-12-27T10:14:44.034Z,29
2023-12-27T10:19:51.420Z,29.5
2023-12-27T10:24:58.815Z,34
2023-12-27T10:30:06.256Z,32.5
2023-12-27T10:35:13.501Z,34
2023-12-27T10:40:20.825Z,30
2023-12-27T10:45:28.261Z,26.5
2023-12-27T10:50:35.768Z,28.5
2023-12-27T10:55:42.935Z,32
2023-12-27T11:00:50.346Z,30.5
2023-12-27T11:05:57.676Z,33
2023-12-27T11:11:04.997Z,32.5
2023-12-27T11:16:12.331Z,34
2023-12-27T11:21:20.239Z,32.5
2023-12-27T11:26:27.060Z,28.5
2023-12-27T11:31:34.441Z,30.5
2023-12-27T11:36:41.804Z,32.5
2023-12-27T11:41:49.120Z,36.5
2023-12-27T11:46:56.466Z,42
2023-12-27T11:52:03.835Z,40
2023-12-27T11:57:11.266Z,41
2023-12-27T12:02:18.542Z,40.5
2023-12-27T12:07:25.930Z,34.5
2023-12-27T12:12:33.352Z,39
2023-12-27T12:17:40.690Z,38
2023-12-27T12:22:47.985Z,37
2023-12-27T12:27:55.454Z,36.5
2023-12-27T12:33:02.800Z,35
2023-12-27T12:38:10.049Z,33
2023-12-27T12:43:17.416Z,37
2023-12-27T12:48:24.881Z,38
2023-12-27T12:53:32.124Z,40.5
2023-12-27T12:58:39.529Z,41
2023-12-27T13:03:46.878Z,41
2023-12-27T13:08:54.173Z,41.5
2023-12-27T13:14:01.542Z,41
2023-12-27T13:19:08.974Z,40.5
2023-12-27T13:24:16.356Z,42.5
2023-12-27T13:29:23.618Z,41
2023-12-27T13:34:31.149Z,38.5
2023-12-27T13:39:38.317Z,39.5
2023-12-27T13:44:45.708Z,39.5
2023-12-27T13:49:53.154Z,41
2023-12-27T13:55:00.458Z,39
2023-12-27T14:00:08.064Z,39
2023-12-27T14:05:15.223Z,37
2023-12-27T14:10:22.480Z,40
2023-12-27T14:15:29.816Z,40.5
2023-12-27T14:20:37.172Z,38.5
2023-12-27T14:25:44.558Z,40
2023-12-27T14:30:51.910Z,42
2023-12-27T14:35:59.257Z,40.5
2023-12-27T14:41:06.602Z,43
2023-12-27T14:46:13.966Z,43.5
2023-12-27T14:51:21.333Z,42
2023-12-27T14:56:28.669Z,42
2023-12-27T15:01:36.169Z,42.5
2023-12-27T15:06:43.397Z,42
2023-12-27T15:11:50.764Z,41.5
2023-12-27T15:16:58.101Z,40
2023-12-27T15:22:05.470Z,40.5
2023-12-27T15:27:12.852Z,42
2023-12-27T15:32:20.183Z,39.5
2023-12-27T15:37:27.538Z,39
2023-12-27T15:42:34.945Z,43
2023-12-27T15:47:42.257Z,41.5
2023-12-27T15:52:49.658Z,38.5
2023-12-27T15:57:57.287Z,35.5
2023-12-27T16:03:04.375Z,38.5
2023-12-27T16:08:11.665Z,42.5
2023-12-27T16:13:19.062Z,42.5
2023-12-27T16:23:33.750Z,43.5
2023-12-27T16:28:41.092Z,41.5
2023-12-27T16:33:48.530Z,38
2023-12-27T16:38:55.807Z,39
2023-12-27T16:44:03.160Z,38
2023-12-27T16:49:10.591Z,41.5
2023-12-27T16:54:17.904Z,41.5
2023-12-27T16:59:26.349Z,41
2023-12-27T17:04:32.692Z,43.5
2023-12-27T17:09:39.971Z,42.5
2023-12-27T17:14:47.329Z,44
2023-12-27T17:19:54.748Z,42.5
2023-12-27T17:25:02.026Z,43
2023-12-27T17:30:09.470Z,45.5
2023-12-27T17:35:16.728Z,43.5
2023-12-27T17:40:24.059Z,44.5
2023-12-27T17:45:31.451Z,43.5
2023-12-27T17:50:38.801Z,40.5
2023-12-27T17:55:46.150Z,43
2023-12-27T18:00:53.577Z,41
2023-12-27T18:06:00.876Z,42.5
2023-12-27T18:11:08.230Z,41.5
2023-12-27T18:16:15.609Z,43
2023-12-27T18:21:22.927Z,40.5
2023-12-27T18:26:36.015Z,41
2023-12-27T18:31:37.667Z,40.5
2023-12-27T18:36:45.041Z,42.5
2023-12-27T18:41:52.345Z,42.5
2023-12-27T18:46:59.763Z,40.5
2023-12-27T18:52:07.094Z,39
2023-12-27T18:57:14.451Z,40
2023-12-27T19:02:21.816Z,46
2023-12-27T19:07:29.139Z,43.5
2023-12-27T19:12:36.496Z,40
2023-12-27T19:17:43.912Z,42
2023-12-27T19:22:51.206Z,37.5
2023-12-27T19:27:58.587Z,39
2023-12-27T19:33:06.009Z,41.5
2023-12-27T19:38:13.308Z,42
2023-12-27T19:43:20.659Z,39
2023-12-27T19:48:28.205Z,43.5
2023-12-27T19:53:35.328Z,43.5
2023-12-27T19:58:42.706Z,43
2023-12-27T20:03:50.109Z,43.5
2023-12-27T20:08:57.425Z,41.5
2023-12-27T20:14:04.825Z,46
2023-12-27T20:19:12.259Z,41
2023-12-27T20:24:19.534Z,44.5
2023-12-27T20:29:26.840Z,41.5
2023-12-27T20:34:34.329Z,43
2023-12-27T20:39:41.611Z,36
2023-12-27T20:44:48.963Z,42
2023-12-27T20:49:56.435Z,41.5
2023-12-27T20:55:03.634Z,44.5
2023-12-27T21:00:10.983Z,46.5
2023-12-27T21:05:18.395Z,46.5
2023-12-27T21:10:25.741Z,46.5
2023-12-27T21:15:33.094Z,44.5
2023-12-27T21:20:40.390Z,41.5
2023-12-27T21:25:47.820Z,42.5
2023-12-27T21:30:55.169Z,42.5
2023-12-27T21:36:02.471Z,41
2023-12-27T21:41:09.845Z,39
2023-12-27T21:46:17.166Z,39.5
2023-12-27T21:51:24.547Z,38
2023-12-27T21:56:32.065Z,39
2023-12-27T22:01:39.291Z,41.5
2023-12-27T22:06:46.664Z,38.5
2023-12-27T22:11:53.977Z,42.5
2023-12-27T22:17:01.340Z,44.5
2023-12-27T22:22:08.708Z,41.5
2023-12-27T22:27:16.070Z,38.5
2023-12-27T22:32:23.432Z,38.5
2023-12-27T22:37:30.748Z,38
2023-12-27T22:42:38.173Z,39.5
2023-12-27T22:47:45.502Z,41.5
2023-12-27T22:52:52.847Z,40.5
2023-12-27T22:58:00.376Z,41.5
2023-12-27T23:03:07.555Z,43
2023-12-27T23:13:22.297Z,41
2023-12-27T23:18:29.753Z,42.5
2023-12-27T23:23:37.016Z,40.5
2023-12-27T23:28:44.374Z,40
2023-12-27T23:33:51.817Z,39.5
2023-12-27T23:38:59.089Z,40
2023-12-27T23:46:18.143Z,36.5
2023-12-27T23:51:25.561Z,36
2023-12-27T23:56:32.872Z,40.5
